Time;durP1;ratioP1;P1;durP2;ratioP2;P2;SDS_P1;SDS_P2;PMS_P1;PMS_P2;Temp;Humidity;BMP_temperature;BMP_pressure;BME280_temperature;BME280_humidity;BME280_pressure;Samples;Min_cycle;Max_cycle;Signal;HPM_P1;HPM_P2
2022/02/27 00:00:42;;;;;;;10.57;4.55;;;;;;;;;;5072222;28;20056;-61
2022/02/27 00:03:08;;;;;;;10.52;4.45;;;;;;;;;;5072936;28;20139;-61
2022/02/27 00:05:36;;;;;;;9.27;4.65;;;;;;;;;;5072715;28;20052;-60
2022/02/27 00:08:03;;;;;;;10.70;4.38;;;;;;;;;;5071430;28;20072;-61
2022/02/27 00:10:31;;;;;;;9.75;4.85;;;;;;;;;;5072113;28;20397;-59
2022/02/27 00:12:59;;;;;;;14.25;4.78;;;;;;;;;;5072273;28;20044;-61
2022/02/27 00:15:26;;;;;;;13.65;5.40;;;;;;;;;;5072461;28;20504;-61
2022/02/27 00:17:53;;;;;;;9.23;4.80;;;;;;;;;;5070589;28;20047;-61
2022/02/27 00:20:20;;;;;;;9.15;4.30;;;;;;;;;;5071843;28;20054;-60
2022/02/27 00:22:47;;;;;;;8.95;4.40;;;;;;;;;;5072161;28;20140;-61
2022/02/27 00:25:14;;;;;;;9.05;4.35;;;;;;;;;;5072272;28;20059;-62
2022/02/27 00:27:42;;;;;;;9.40;4.78;;;;;;;;;;5071845;28;20505;-61
2022/02/27 00:30:11;;;;;;;11.38;5.65;;;;;;;;;;5072661;28;20131;-62
2022/02/27 00:32:38;;;;;;;11.70;5.10;;;;;;;;;;5072006;28;20126;-62
2022/02/27 00:35:06;;;;;;;10.88;5.10;;;;;;;;;;5072021;28;20106;-61
2022/02/27 00:37:34;;;;;;;11.60;5.10;;;;;;;;;;5071974;28;20538;-62
2022/02/27 00:40:01;;;;;;;13.02;5.30;;;;;;;;;;5071942;28;20147;-62
2022/02/27 00:42:28;;;;;;;9.38;5.05;;;;;;;;;;5071903;28;20048;-62
2022/02/27 00:44:56;;;;;;;10.48;5.15;;;;;;;;;;5071951;28;20048;-61
2022/02/27 00:47:23;;;;;;;10.63;5.22;;;;;;;;;;5071895;28;20044;-61
2022/02/27 00:49:50;;;;;;;10.18;5.15;;;;;;;;;;5072229;28;20040;-62
2022/02/27 00:52:22;;;;;;;11.93;5.22;;;;;;;;;;5072137;28;20051;-61
2022/02/27 00:54:49;;;;;;;13.65;5.28;;;;;;;;;;5072226;28;20508;-62
2022/02/27 00:57:16;;;;;;;10.23;4.97;;;;;;;;;;5051769;28;20049;-61
2022/02/27 00:59:44;;;;;;;12.48;5.72;;;;;;;;;;5051760;28;20486;-60
2022/02/27 01:02:13;;;;;;;13.75;5.60;;;;;;;;;;5051885;28;20045;-61
2022/02/27 01:04:40;;;;;;;10.80;6.22;;;;;;;;;;5054223;28;20136;-59
2022/02/27 01:07:07;;;;;;;12.35;5.32;;;;;;;;;;5055479;28;20053;-59
2022/02/27 01:09:34;;;;;;;12.80;6.63;;;;;;;;;;5055909;28;20053;-61
2022/02/27 01:12:01;;;;;;;11.40;5.57;;;;;;;;;;5055520;28;20075;-60
2022/02/27 01:14:28;;;;;;;14.43;6.32;;;;;;;;;;5055615;28;20480;-59
2022/02/27 01:16:56;;;;;;;12.98;5.82;;;;;;;;;;5055635;28;20063;-62
2022/02/27 01:19:24;;;;;;;10.90;5.88;;;;;;;;;;5055854;28;20049;-61
2022/02/27 01:21:51;;;;;;;16.35;6.85;;;;;;;;;;5055617;28;20045;-61
2022/02/27 01:24:18;;;;;;;11.38;5.63;;;;;;;;;;5055756;28;20048;-61
2022/02/27 01:26:45;;;;;;;12.68;5.75;;;;;;;;;;5055643;28;20051;-61
2022/02/27 01:29:12;;;;;;;15.30;6.85;;;;;;;;;;5055416;28;20052;-61
2022/02/27 01:31:40;;;;;;;14.18;5.97;;;;;;;;;;5055451;28;20055;-61
2022/02/27 01:34:06;;;;;;;13.07;5.85;;;;;;;;;;5055550;28;20045;-62
2022/02/27 01:36:35;;;;;;;12.32;5.85;;;;;;;;;;5055265;28;20059;-62
2022/02/27 01:39:02;;;;;;;13.25;6.40;;;;;;;;;;5055539;28;20055;-60
2022/02/27 01:41:29;;;;;;;13.43;6.15;;;;;;;;;;5055105;28;20053;-62
2022/02/27 01:43:56;;;;;;;11.77;5.35;;;;;;;;;;5055082;28;20053;-61
2022/02/27 01:46:23;;;;;;;10.55;5.85;;;;;;;;;;5055016;28;20053;-61
2022/02/27 01:48:50;;;;;;;11.38;5.78;;;;;;;;;;5054939;28;20051;-62
2022/02/27 01:51:17;;;;;;;13.50;6.22;;;;;;;;;;5055110;28;20143;-63
2022/02/27 01:53:46;;;;;;;12.25;5.68;;;;;;;;;;5054988;28;20136;-61
2022/02/27 01:56:13;;;;;;;10.93;5.25;;;;;;;;;;5066239;28;20060;-62
2022/02/27 01:58:40;;;;;;;9.30;4.95;;;;;;;;;;5074556;28;20048;-62
2022/02/27 02:01:07;;;;;;;12.55;5.97;;;;;;;;;;5074993;28;20044;-62
2022/02/27 02:03:34;;;;;;;11.27;5.25;;;;;;;;;;5074957;28;20132;-60
2022/02/27 02:06:01;;;;;;;11.45;5.88;;;;;;;;;;5074922;28;20055;-61
2022/02/27 02:08:28;;;;;;;11.60;4.93;;;;;;;;;;5074460;28;20052;-61
2022/02/27 02:10:59;;;;;;;9.38;5.05;;;;;;;;;;5074764;28;20052;-61
2022/02/27 02:16:12;;;;;;;15.25;5.50;;;;;;;;;;5090191;28;20102;-64
2022/02/27 02:18:39;;;;;;;13.25;6.03;;;;;;;;;;5101954;28;20050;-64
2022/02/27 02:21:08;;;;;;;9.20;5.47;;;;;;;;;;5114612;28;20051;-65
2022/02/27 02:23:35;;;;;;;11.18;5.20;;;;;;;;;;5114521;28;20123;-65
2022/02/27 02:26:03;;;;;;;7.85;5.07;;;;;;;;;;5114874;28;20411;-64
2022/02/27 02:28:31;;;;;;;11.30;5.28;;;;;;;;;;5114227;28;20127;-65
2022/02/27 02:30:58;;;;;;;10.35;5.40;;;;;;;;;;5114728;28;20057;-64
2022/02/27 02:33:34;;;;;;;12.15;5.43;;;;;;;;;;5114678;28;20043;-64
2022/02/27 02:36:01;;;;;;;13.07;5.20;;;;;;;;;;5114685;28;20051;-64
2022/02/27 02:38:30;;;;;;;10.25;5.30;;;;;;;;;;5114438;28;20055;-65
2022/02/27 02:40:57;;;;;;;11.32;5.45;;;;;;;;;;5114660;28;20082;-65
2022/02/27 02:43:24;;;;;;;12.35;5.53;;;;;;;;;;5114253;28;20240;-64
2022/02/27 02:45:51;;;;;;;11.10;5.55;;;;;;;;;;5114359;28;20048;-65
2022/02/27 02:48:18;;;;;;;11.15;5.28;;;;;;;;;;5113722;28;20070;-64
2022/02/27 02:50:45;;;;;;;11.05;5.55;;;;;;;;;;5114159;28;20048;-64
2022/02/27 02:53:12;;;;;;;11.18;5.40;;;;;;;;;;5113849;28;20053;-65
2022/02/27 02:55:41;;;;;;;11.57;6.07;;;;;;;;;;5107024;28;20048;-64
2022/02/27 02:58:08;;;;;;;13.82;5.35;;;;;;;;;;5093398;28;20055;-65
2022/02/27 03:00:35;;;;;;;10.32;5.25;;;;;;;;;;5093539;28;20051;-64
2022/02/27 03:03:02;;;;;;;11.52;6.78;;;;;;;;;;5093568;28;20062;-65
2022/02/27 03:05:29;;;;;;;12.23;5.57;;;;;;;;;;5093346;28;20235;-65
2022/02/27 03:07:56;;;;;;;9.63;5.05;;;;;;;;;;5093094;28;20044;-65
2022/02/27 03:10:23;;;;;;;9.23;5.85;;;;;;;;;;5093478;28;20063;-65
2022/02/27 03:12:51;;;;;;;11.27;5.85;;;;;;;;;;5093284;28;20488;-65
2022/02/27 03:15:18;;;;;;;9.77;5.57;;;;;;;;;;5093208;28;20062;-65
2022/02/27 03:17:45;;;;;;;11.15;5.45;;;;;;;;;;5093031;28;20425;-65
2022/02/27 03:20:12;;;;;;;10.20;5.63;;;;;;;;;;5093270;28;20484;-65
2022/02/27 03:22:40;;;;;;;10.60;5.30;;;;;;;;;;5093102;28;20430;-65
2022/02/27 03:25:07;;;;;;;11.00;5.82;;;;;;;;;;5093001;28;20059;-65
2022/02/27 03:27:34;;;;;;;10.77;5.22;;;;;;;;;;5091867;28;20087;-65
2022/02/27 03:30:03;;;;;;;14.27;6.03;;;;;;;;;;5092834;28;20082;-65
2022/02/27 03:32:30;;;;;;;10.88;5.95;;;;;;;;;;5093073;28;20113;-65
2022/02/27 03:34:57;;;;;;;10.48;5.43;;;;;;;;;;5092808;28;20040;-65
2022/02/27 03:37:24;;;;;;;9.93;5.55;;;;;;;;;;5092688;28;20484;-65
2022/02/27 03:39:51;;;;;;;12.27;5.88;;;;;;;;;;5092681;28;20054;-65
2022/02/27 03:42:18;;;;;;;14.30;6.28;;;;;;;;;;5092833;28;20471;-65
2022/02/27 03:44:45;;;;;;;11.82;5.60;;;;;;;;;;5092778;28;20051;-65
2022/02/27 03:47:14;;;;;;;10.07;5.55;;;;;;;;;;5092357;28;20052;-65
2022/02/27 03:49:41;;;;;;;9.38;5.68;;;;;;;;;;5092546;28;20492;-65
2022/02/27 03:52:08;;;;;;;11.77;6.00;;;;;;;;;;5092684;28;20044;-65
2022/02/27 03:54:35;;;;;;;15.00;6.35;;;;;;;;;;5092500;28;20056;-65
2022/02/27 03:57:02;;;;;;;12.05;6.40;;;;;;;;;;5092075;28;20131;-65
2022/02/27 03:59:29;;;;;;;10.45;5.85;;;;;;;;;;5092303;28;20496;-65
2022/02/27 04:01:56;;;;;;;13.40;6.07;;;;;;;;;;5092511;28;20061;-65
2022/02/27 04:04:24;;;;;;;11.40;5.95;;;;;;;;;;5092300;28;20048;-64
2022/02/27 04:06:51;;;;;;;11.15;6.05;;;;;;;;;;5092276;28;20130;-64
2022/02/27 04:09:18;;;;;;;12.20;6.22;;;;;;;;;;5092316;28;20500;-64
2022/02/27 04:11:45;;;;;;;11.13;5.93;;;;;;;;;;5092588;28;20309;-64
2022/02/27 04:14:12;;;;;;;9.25;5.30;;;;;;;;;;5092160;28;20054;-64
2022/02/27 04:16:39;;;;;;;11.70;6.20;;;;;;;;;;5092311;28;20062;-64
2022/02/27 04:19:06;;;;;;;11.57;6.18;;;;;;;;;;5092130;28;20043;-65
2022/02/27 04:21:35;;;;;;;11.93;6.55;;;;;;;;;;5092488;28;20444;-65
2022/02/27 04:24:02;;;;;;;15.00;6.15;;;;;;;;;;5091939;28;20048;-65
2022/02/27 04:26:29;;;;;;;9.75;5.57;;;;;;;;;;5092120;28;20515;-64
2022/02/27 04:28:56;;;;;;;10.93;5.72;;;;;;;;;;5092105;28;20586;-65
2022/02/27 04:31:23;;;;;;;12.05;6.15;;;;;;;;;;5092256;28;20485;-65
2022/02/27 04:33:50;;;;;;;10.88;6.57;;;;;;;;;;5092146;28;20044;-65
2022/02/27 04:36:17;;;;;;;9.43;6.40;;;;;;;;;;5092091;28;20052;-65
2022/02/27 04:38:46;;;;;;;12.13;6.10;;;;;;;;;;5091450;28;20060;-65
2022/02/27 04:41:18;;;;;;;12.15;6.05;;;;;;;;;;5092000;28;20044;-65
2022/02/27 04:43:45;;;;;;;12.75;6.22;;;;;;;;;;5092267;28;20056;-65
2022/02/27 04:46:12;;;;;;;10.55;5.93;;;;;;;;;;5091874;28;20048;-64
2022/02/27 04:48:38;;;;;;;10.85;6.68;;;;;;;;;;5092352;28;20127;-65
2022/02/27 04:51:06;;;;;;;13.27;6.05;;;;;;;;;;5092194;28;20054;-65
2022/02/27 04:53:34;;;;;;;9.77;5.32;;;;;;;;;;5092152;28;20062;-65
2022/02/27 04:56:03;;;;;;;10.88;5.90;;;;;;;;;;5093033;28;20048;-65
2022/02/27 04:58:31;;;;;;;9.77;5.60;;;;;;;;;;5091956;28;20579;-65
2022/02/27 05:00:58;;;;;;;10.45;5.78;;;;;;;;;;5091859;28;20489;-65
2022/02/27 05:03:26;;;;;;;11.57;6.30;;;;;;;;;;5092692;28;20427;-64
2022/02/27 05:05:52;;;;;;;11.02;5.80;;;;;;;;;;5092122;28;20433;-65
2022/02/27 05:08:19;;;;;;;10.20;6.20;;;;;;;;;;5091820;28;20052;-64
2022/02/27 05:10:46;;;;;;;12.30;6.68;;;;;;;;;;5092187;28;20121;-64
2022/02/27 05:13:16;;;;;;;10.77;6.10;;;;;;;;;;5092020;28;20066;-64
2022/02/27 05:15:43;;;;;;;12.30;6.22;;;;;;;;;;5091711;28;20044;-65
2022/02/27 05:18:09;;;;;;;12.60;6.47;;;;;;;;;;5091676;28;20058;-63
2022/02/27 05:20:36;;;;;;;10.70;5.88;;;;;;;;;;5091640;28;20054;-64
2022/02/27 05:23:03;;;;;;;11.23;5.55;;;;;;;;;;5091739;28;20140;-63
2022/02/27 05:25:30;;;;;;;10.98;5.95;;;;;;;;;;5091852;28;20052;-64
2022/02/27 05:27:57;;;;;;;8.80;5.82;;;;;;;;;;5091612;28;20308;-65
2022/02/27 05:30:26;;;;;;;9.30;5.47;;;;;;;;;;5092012;28;20066;-64
2022/02/27 05:32:53;;;;;;;12.48;6.28;;;;;;;;;;5091821;28;20048;-64
2022/02/27 05:35:21;;;;;;;11.82;6.50;;;;;;;;;;5091524;28;20131;-63
2022/02/27 05:37:48;;;;;;;10.55;5.82;;;;;;;;;;5091395;28;20052;-64
2022/02/27 05:40:16;;;;;;;8.55;6.10;;;;;;;;;;5091911;28;20390;-64
2022/02/27 05:42:43;;;;;;;12.90;6.72;;;;;;;;;;5091750;28;20054;-64
2022/02/27 05:45:11;;;;;;;14.88;6.53;;;;;;;;;;5091540;28;20048;-64
2022/02/27 05:47:39;;;;;;;10.75;5.70;;;;;;;;;;5091390;28;20048;-65
2022/02/27 05:50:07;;;;;;;11.98;6.57;;;;;;;;;;5092606;28;20129;-64
2022/02/27 05:52:34;;;;;;;13.80;6.97;;;;;;;;;;5095113;28;20400;-64
2022/02/27 05:55:01;;;;;;;11.68;6.35;;;;;;;;;;5095253;28;20432;-65
2022/02/27 05:57:28;;;;;;;14.48;6.43;;;;;;;;;;5094965;28;20151;-65
2022/02/27 05:59:55;;;;;;;12.57;6.55;;;;;;;;;;5094971;28;20047;-65
2022/02/27 06:02:22;;;;;;;12.82;6.22;;;;;;;;;;5094978;28;20044;-65
2022/02/27 06:04:51;;;;;;;12.73;6.47;;;;;;;;;;5094863;28;20067;-64
2022/02/27 06:07:18;;;;;;;12.23;6.60;;;;;;;;;;5094747;28;20048;-65
2022/02/27 06:09:45;;;;;;;13.25;6.72;;;;;;;;;;5094627;28;20051;-65
2022/02/27 06:12:11;;;;;;;12.02;6.30;;;;;;;;;;5095013;28;20048;-64
2022/02/27 06:14:38;;;;;;;12.30;6.43;;;;;;;;;;5094652;28;20074;-64
2022/02/27 06:17:05;;;;;;;10.90;6.32;;;;;;;;;;5094912;28;20419;-63
2022/02/27 06:19:32;;;;;;;13.38;6.13;;;;;;;;;;5094512;28;20052;-64
2022/02/27 06:22:01;;;;;;;13.95;7.18;;;;;;;;;;5094473;28;20325;-66
2022/02/27 06:24:28;;;;;;;11.48;5.85;;;;;;;;;;5094383;28;20491;-64
2022/02/27 06:26:55;;;;;;;13.18;6.22;;;;;;;;;;5094236;28;20052;-65
2022/02/27 06:29:22;;;;;;;13.50;6.75;;;;;;;;;;5094394;28;20070;-65
2022/02/27 06:31:49;;;;;;;15.10;6.43;;;;;;;;;;5094762;28;20060;-64
2022/02/27 06:34:16;;;;;;;14.40;6.72;;;;;;;;;;5094604;28;20050;-65
2022/02/27 06:36:43;;;;;;;12.70;6.43;;;;;;;;;;5094199;28;20048;-65
2022/02/27 06:39:12;;;;;;;12.57;7.25;;;;;;;;;;5094377;28;20048;-64
2022/02/27 06:41:39;;;;;;;12.60;6.35;;;;;;;;;;5094460;28;20135;-64
2022/02/27 06:44:06;;;;;;;13.13;6.90;;;;;;;;;;5094795;28;20523;-65
2022/02/27 06:46:33;;;;;;;13.38;6.28;;;;;;;;;;5094230;28;20412;-64
2022/02/27 06:49:00;;;;;;;13.88;6.45;;;;;;;;;;5094114;28;20052;-65
2022/02/27 06:51:27;;;;;;;13.70;6.90;;;;;;;;;;5094071;28;20048;-64
2022/02/27 06:53:54;;;;;;;10.18;6.13;;;;;;;;;;5093481;28;20436;-65
2022/02/27 06:56:23;;;;;;;10.90;6.30;;;;;;;;;;5073696;28;20139;-64
2022/02/27 06:58:50;;;;;;;15.10;6.78;;;;;;;;;;5073797;28;20524;-65
2022/02/27 07:01:18;;;;;;;12.35;6.13;;;;;;;;;;5072705;28;20049;-65
2022/02/27 07:03:45;;;;;;;11.45;6.35;;;;;;;;;;5074060;28;20489;-63
2022/02/27 07:06:12;;;;;;;12.85;7.07;;;;;;;;;;5073572;28;20052;-64
2022/02/27 07:08:39;;;;;;;14.15;6.60;;;;;;;;;;5073652;28;20044;-62
2022/02/27 07:11:06;;;;;;;12.20;6.90;;;;;;;;;;5073416;28;20190;-64
2022/02/27 07:13:35;;;;;;;12.15;6.45;;;;;;;;;;5073366;28;20052;-64
2022/02/27 07:16:02;;;;;;;9.77;5.95;;;;;;;;;;5073639;28;20045;-64
2022/02/27 07:18:29;;;;;;;13.27;6.93;;;;;;;;;;5073446;28;20518;-65
2022/02/27 07:20:56;;;;;;;13.90;7.05;;;;;;;;;;5073585;28;20056;-65
2022/02/27 07:23:22;;;;;;;12.55;7.32;;;;;;;;;;5073227;28;20055;-65
2022/02/27 07:25:49;;;;;;;13.25;6.28;;;;;;;;;;5073274;28;20049;-65
2022/02/27 07:28:16;;;;;;;13.52;6.35;;;;;;;;;;5073152;28;20047;-64
2022/02/27 07:30:45;;;;;;;14.25;6.78;;;;;;;;;;5073361;28;20465;-64
2022/02/27 07:33:12;;;;;;;10.73;6.50;;;;;;;;;;5072945;28;20055;-64
2022/02/27 07:35:39;;;;;;;16.02;7.32;;;;;;;;;;5072984;28;20143;-67
2022/02/27 07:38:06;;;;;;;12.68;6.72;;;;;;;;;;5073058;28;20515;-65
2022/02/27 07:40:33;;;;;;;14.43;7.85;;;;;;;;;;5073109;28;20138;-65
2022/02/27 07:43:00;;;;;;;10.90;6.28;;;;;;;;;;5072951;28;20063;-65
2022/02/27 07:45:27;;;;;;;11.30;6.32;;;;;;;;;;5072707;28;20053;-65
2022/02/27 07:47:55;;;;;;;13.43;6.50;;;;;;;;;;5072519;28;20044;-65
2022/02/27 07:50:22;;;;;;;14.30;6.72;;;;;;;;;;5072967;28;20045;-66
2022/02/27 07:52:49;;;;;;;13.65;6.80;;;;;;;;;;5072988;28;20048;-65
2022/02/27 07:55:18;;;;;;;16.60;6.82;;;;;;;;;;5072737;28;20058;-66
2022/02/27 07:57:45;;;;;;;14.50;7.22;;;;;;;;;;5076485;28;20063;-65
2022/02/27 08:00:13;;;;;;;13.15;7.35;;;;;;;;;;5092454;28;20056;-65
2022/02/27 08:02:40;;;;;;;13.68;7.22;;;;;;;;;;5091560;28;20408;-65
2022/02/27 08:05:09;;;;;;;13.20;6.97;;;;;;;;;;5091059;28;20040;-64
2022/02/27 08:07:37;;;;;;;15.60;7.95;;;;;;;;;;5091183;28;20130;-66
2022/02/27 08:10:04;;;;;;;13.70;6.80;;;;;;;;;;5091178;28;20071;-70
2022/02/27 08:12:32;;;;;;;14.70;6.72;;;;;;;;;;5092476;28;20066;-68
2022/02/27 08:14:59;;;;;;;14.65;7.47;;;;;;;;;;5092135;28;20070;-66
2022/02/27 08:17:26;;;;;;;12.43;7.53;;;;;;;;;;5092360;28;20143;-66
2022/02/27 08:19:53;;;;;;;15.80;7.20;;;;;;;;;;5090809;28;20048;-67
2022/02/27 08:22:21;;;;;;;16.80;6.93;;;;;;;;;;5092291;28;20066;-68
2022/02/27 08:24:48;;;;;;;13.60;7.55;;;;;;;;;;5091503;28;20055;-68
2022/02/27 08:27:15;;;;;;;14.88;7.32;;;;;;;;;;5091144;28;20048;-68
2022/02/27 08:29:44;;;;;;;15.15;7.30;;;;;;;;;;5091798;28;20054;-67
2022/02/27 08:32:11;;;;;;;13.65;7.35;;;;;;;;;;5092568;28;20475;-68
2022/02/27 08:34:38;;;;;;;13.25;7.28;;;;;;;;;;5092192;28;20048;-68
2022/02/27 08:37:05;;;;;;;15.43;7.32;;;;;;;;;;5091932;28;20479;-68
2022/02/27 08:39:34;;;;;;;11.68;6.32;;;;;;;;;;5092363;28;20058;-68
2022/02/27 08:42:01;;;;;;;13.68;7.53;;;;;;;;;;5091819;28;20062;-68
2022/02/27 08:44:28;;;;;;;13.93;6.95;;;;;;;;;;5091961;28;20485;-68
2022/02/27 08:46:57;;;;;;;15.80;7.55;;;;;;;;;;5091807;28;20048;-68
2022/02/27 08:49:24;;;;;;;13.43;7.20;;;;;;;;;;5091595;28;20516;-69
2022/02/27 08:51:51;;;;;;;11.13;6.93;;;;;;;;;;5091871;28;20050;-69
2022/02/27 08:54:18;;;;;;;12.45;7.13;;;;;;;;;;5094073;28;20048;-69
2022/02/27 08:56:47;;;;;;;10.90;6.45;;;;;;;;;;5095929;28;20489;-67
2022/02/27 08:59:14;;;;;;;12.85;6.47;;;;;;;;;;5091785;28;20052;-69
2022/02/27 09:01:42;;;;;;;12.88;6.60;;;;;;;;;;5092058;28;20435;-69
2022/02/27 09:04:09;;;;;;;12.10;7.03;;;;;;;;;;5091825;28;20048;-69
2022/02/27 09:06:39;;;;;;;12.10;6.82;;;;;;;;;;5091637;28;20044;-68
2022/02/27 09:09:06;;;;;;;11.80;6.78;;;;;;;;;;5091542;28;20051;-69
2022/02/27 09:11:33;;;;;;;15.05;6.80;;;;;;;;;;5091429;28;20074;-69
2022/02/27 09:14:02;;;;;;;15.05;7.10;;;;;;;;;;5091704;28;20050;-69
2022/02/27 09:16:29;;;;;;;15.10;7.90;;;;;;;;;;5091756;28;20412;-68
2022/02/27 09:18:55;;;;;;;13.48;6.80;;;;;;;;;;5091497;28;20054;-68
2022/02/27 09:21:22;;;;;;;11.40;6.22;;;;;;;;;;5091713;28;20059;-68
2022/02/27 09:23:50;;;;;;;11.95;6.10;;;;;;;;;;5091416;28;20048;-68
2022/02/27 09:26:18;;;;;;;19.85;8.05;;;;;;;;;;5094993;28;20055;-68
2022/02/27 09:28:45;;;;;;;12.30;7.15;;;;;;;;;;5095121;28;20089;-68
2022/02/27 09:31:13;;;;;;;13.30;6.90;;;;;;;;;;5096351;28;20500;-69
2022/02/27 09:33:40;;;;;;;11.85;6.05;;;;;;;;;;5095261;28;20047;-69
2022/02/27 09:36:10;;;;;;;11.70;6.32;;;;;;;;;;5095698;28;20439;-68
2022/02/27 09:38:37;;;;;;;10.38;5.85;;;;;;;;;;5094740;28;20143;-68
2022/02/27 09:41:05;;;;;;;10.77;5.85;;;;;;;;;;5095223;28;20503;-68
2022/02/27 09:43:33;;;;;;;11.95;6.10;;;;;;;;;;5095179;28;20052;-68
2022/02/27 09:46:00;;;;;;;11.52;6.15;;;;;;;;;;5095218;28;20117;-69
2022/02/27 09:48:29;;;;;;;11.38;6.18;;;;;;;;;;5094682;28;20048;-69
2022/02/27 09:50:57;;;;;;;12.18;5.45;;;;;;;;;;5095126;28;20390;-69
2022/02/27 09:53:24;;;;;;;14.18;6.57;;;;;;;;;;5095255;28;20385;-68
2022/02/27 09:55:51;;;;;;;12.95;6.13;;;;;;;;;;5094949;28;20044;-68
2022/02/27 09:58:18;;;;;;;14.75;6.50;;;;;;;;;;5094477;28;20048;-68
2022/02/27 10:00:45;;;;;;;13.15;5.93;;;;;;;;;;5095038;28;20044;-69
2022/02/27 10:03:13;;;;;;;13.00;6.45;;;;;;;;;;5094951;28;20404;-69
2022/02/27 10:05:43;;;;;;;11.43;6.22;;;;;;;;;;5096006;28;20135;-69
2022/02/27 10:08:10;;;;;;;11.25;5.60;;;;;;;;;;5097675;28;20040;-68
2022/02/27 10:10:39;;;;;;;10.85;5.78;;;;;;;;;;5098241;28;20119;-69
2022/02/27 10:13:07;;;;;;;10.02;5.65;;;;;;;;;;5096761;28;20131;-68
2022/02/27 10:15:34;;;;;;;13.85;6.65;;;;;;;;;;5096122;28;20047;-68
2022/02/27 10:18:14;;;;;;;10.32;5.68;;;;;;;;;;5095997;28;20063;-70
2022/02/27 10:20:43;;;;;;;10.88;5.55;;;;;;;;;;5094974;28;20102;-69
2022/02/27 10:23:10;;;;;;;12.25;6.25;;;;;;;;;;5094701;28;20066;-68
2022/02/27 10:25:39;;;;;;;9.05;5.53;;;;;;;;;;5096286;28;20123;-68
2022/02/27 10:28:07;;;;;;;10.05;5.95;;;;;;;;;;5095743;28;20079;-70
2022/02/27 10:30:36;;;;;;;12.18;6.18;;;;;;;;;;5095117;28;20151;-69
2022/02/27 10:33:05;;;;;;;12.95;6.47;;;;;;;;;;5095279;28;20059;-69
2022/02/27 10:35:40;;;;;;;11.50;5.72;;;;;;;;;;5095060;28;20052;-70
2022/02/27 10:38:10;;;;;;;11.80;6.38;;;;;;;;;;5094496;28;20044;-69
2022/02/27 10:40:39;;;;;;;9.88;6.38;;;;;;;;;;5095642;28;20063;-70
2022/02/27 10:43:07;;;;;;;10.23;5.95;;;;;;;;;;5096011;28;20122;-69
2022/02/27 10:45:35;;;;;;;15.18;8.35;;;;;;;;;;5096421;28;20051;-72
2022/02/27 10:48:07;;;;;;;11.60;6.97;;;;;;;;;;5095035;28;20131;-68
2022/02/27 10:50:35;;;;;;;11.95;7.43;;;;;;;;;;5093971;28;20055;-69
2022/02/27 10:53:03;;;;;;;14.90;7.30;;;;;;;;;;5093834;28;20055;-70
2022/02/27 10:55:32;;;;;;;13.45;7.13;;;;;;;;;;5088159;28;20044;-68
2022/02/27 10:58:00;;;;;;;14.50;7.70;;;;;;;;;;5073206;28;20056;-68
2022/02/27 11:00:29;;;;;;;14.90;7.32;;;;;;;;;;5073598;28;20056;-69
2022/02/27 11:02:59;;;;;;;13.57;6.70;;;;;;;;;;5073578;28;20136;-69
2022/02/27 11:05:28;;;;;;;16.27;7.30;;;;;;;;;;5073278;28;20044;-69
2022/02/27 11:07:57;;;;;;;11.55;7.05;;;;;;;;;;5072956;28;20063;-69
2022/02/27 11:10:25;;;;;;;12.57;7.13;;;;;;;;;;5074130;28;20059;-69
2022/02/27 11:12:54;;;;;;;13.88;6.63;;;;;;;;;;5072965;28;20045;-68
2022/02/27 11:15:22;;;;;;;12.95;6.60;;;;;;;;;;5073225;28;20139;-69
2022/02/27 11:17:50;;;;;;;11.38;6.43;;;;;;;;;;5072758;28;20060;-69
2022/02/27 11:20:19;;;;;;;11.60;7.28;;;;;;;;;;5072925;28;20476;-69
2022/02/27 11:22:47;;;;;;;11.25;6.85;;;;;;;;;;5072966;28;20060;-69
2022/02/27 11:25:14;;;;;;;10.02;6.43;;;;;;;;;;5072834;28;20044;-69
2022/02/27 11:27:46;;;;;;;14.45;6.95;;;;;;;;;;5072631;28;20055;-68
2022/02/27 11:30:19;;;;;;;12.15;6.97;;;;;;;;;;5072746;28;20048;-69
2022/02/27 11:32:48;;;;;;;11.55;7.43;;;;;;;;;;5073002;28;20076;-69
2022/02/27 11:35:39;;;;;;;13.32;8.18;;;;;;;;;;5072742;28;20052;-69
2022/02/27 11:38:07;;;;;;;13.15;7.30;;;;;;;;;;5072794;28;20055;-69
2022/02/27 11:40:44;;;;;;;14.70;6.88;;;;;;;;;;5072705;28;20050;-69
2022/02/27 11:43:16;;;;;;;11.00;6.43;;;;;;;;;;5072567;28;20390;-69
2022/02/27 11:46:02;;;;;;;10.73;6.65;;;;;;;;;;5072651;28;20087;-69
2022/02/27 11:49:06;;;;;;;13.60;7.10;;;;;;;;;;5071542;28;20089;-69
2022/02/27 11:52:01;;;;;;;13.18;7.07;;;;;;;;;;5072518;28;20052;-70
2022/02/27 11:54:38;;;;;;;13.27;7.20;;;;;;;;;;5072361;28;20048;-70
2022/02/27 11:57:17;;;;;;;13.60;6.82;;;;;;;;;;5090879;28;20059;-70
2022/02/27 12:00:07;;;;;;;11.27;6.57;;;;;;;;;;5092385;28;20067;-69
2022/02/27 12:02:39;;;;;;;13.63;7.38;;;;;;;;;;5092998;28;20063;-70
2022/02/27 12:05:08;;;;;;;13.23;6.32;;;;;;;;;;5092769;28;20528;-69
2022/02/27 12:08:07;;;;;;;13.70;6.90;;;;;;;;;;5092216;28;20134;-70
2022/02/27 12:10:36;;;;;;;12.43;6.93;;;;;;;;;;5092393;28;20052;-69
2022/02/27 12:13:04;;;;;;;11.15;6.97;;;;;;;;;;5092325;28;20080;-70
2022/02/27 12:15:34;;;;;;;11.05;6.95;;;;;;;;;;5092226;28;20532;-69
2022/02/27 12:18:06;;;;;;;14.23;7.95;;;;;;;;;;5092056;28;20048;-69
2022/02/27 12:20:57;;;;;;;9.63;6.38;;;;;;;;;;5092968;28;20081;-69
2022/02/27 12:23:47;;;;;;;11.32;7.28;;;;;;;;;;5092960;28;20147;-69
2022/02/27 12:26:43;;;;;;;10.35;6.72;;;;;;;;;;5092799;28;20054;-69
2022/02/27 12:29:26;;;;;;;12.85;7.38;;;;;;;;;;5092869;28;20504;-69
2022/02/27 12:31:53;;;;;;;11.70;6.97;;;;;;;;;;5093033;28;20062;-69
2022/02/27 12:34:23;;;;;;;10.88;7.40;;;;;;;;;;5092612;28;20048;-69
2022/02/27 12:36:51;;;;;;;13.98;7.88;;;;;;;;;;5092528;28;20054;-69
2022/02/27 12:39:19;;;;;;;12.38;6.93;;;;;;;;;;5092377;28;20050;-69
2022/02/27 12:41:47;;;;;;;15.55;7.55;;;;;;;;;;5092591;28;20083;-69
2022/02/27 12:44:19;;;;;;;12.73;7.05;;;;;;;;;;5092423;28;20040;-69
2022/02/27 12:46:46;;;;;;;12.40;6.80;;;;;;;;;;5092674;28;20288;-69
2022/02/27 12:52:00;;;;;;;11.95;7.00;;;;;;;;;;5071572;28;20139;-69
2022/02/27 12:54:34;;;;;;;12.43;7.60;;;;;;;;;;5092229;28;20052;-69
2022/02/27 12:57:04;;;;;;;12.57;7.43;;;;;;;;;;5073874;28;20102;-69
2022/02/27 12:59:34;;;;;;;14.80;7.50;;;;;;;;;;5074756;28;20494;-69
2022/02/27 13:02:02;;;;;;;12.97;8.33;;;;;;;;;;5076099;28;20139;-69
2022/02/27 13:04:30;;;;;;;13.23;8.18;;;;;;;;;;5076392;28;20273;-69
2022/02/27 13:07:04;;;;;;;11.70;6.95;;;;;;;;;;5076275;28;20127;-70
2022/02/27 13:09:32;;;;;;;11.90;7.35;;;;;;;;;;5075542;28;20075;-69
2022/02/27 13:12:04;;;;;;;13.00;7.40;;;;;;;;;;5075842;28;20056;-69
2022/02/27 13:14:31;;;;;;;11.05;7.38;;;;;;;;;;5075247;28;20063;-70
2022/02/27 13:16:59;;;;;;;12.38;7.50;;;;;;;;;;5075269;28;20508;-69
2022/02/27 13:19:31;;;;;;;12.32;7.07;;;;;;;;;;5075399;28;20498;-69
2022/02/27 13:21:58;;;;;;;12.55;8.00;;;;;;;;;;5075366;28;20048;-68
2022/02/27 13:24:34;;;;;;;18.23;14.00;;;;;;;;;;5075115;28;20426;-68
2022/02/27 13:27:05;;;;;;;11.27;6.13;;;;;;;;;;5075121;28;20084;-68
2022/02/27 13:29:33;;;;;;;12.95;7.30;;;;;;;;;;5075584;28;20071;-74
2022/02/27 13:32:00;;;;;;;10.93;7.28;;;;;;;;;;5075783;28;20477;-68
2022/02/27 13:34:27;;;;;;;10.32;6.15;;;;;;;;;;5075037;28;20494;-67
2022/02/27 13:36:54;;;;;;;12.95;10.65;;;;;;;;;;5074914;28;20517;-68
2022/02/27 13:39:37;;;;;;;11.40;7.15;;;;;;;;;;5075254;28;20508;-69
2022/02/27 13:42:05;;;;;;;10.93;6.82;;;;;;;;;;5074850;28;20052;-68
2022/02/27 13:44:32;;;;;;;12.07;6.88;;;;;;;;;;5074796;28;20052;-69
2022/02/27 13:46:59;;;;;;;12.07;6.28;;;;;;;;;;5074509;28;20059;-69
2022/02/27 13:49:26;;;;;;;11.82;6.53;;;;;;;;;;5074627;28;20044;-69
2022/02/27 13:51:53;;;;;;;13.98;6.63;;;;;;;;;;5074534;28;20044;-69
2022/02/27 13:54:22;;;;;;;11.73;6.90;;;;;;;;;;5074703;28;20062;-69
2022/02/27 13:57:06;;;;;;;11.65;6.90;;;;;;;;;;5091116;28;20138;-69
2022/02/27 13:59:46;;;;;;;11.43;6.63;;;;;;;;;;5094985;28;20056;-69
2022/02/27 14:02:13;;;;;;;11.63;7.05;;;;;;;;;;5095672;28;20501;-69
2022/02/27 14:05:08;;;;;;;11.23;7.30;;;;;;;;;;5094893;28;20050;-69
2022/02/27 14:07:35;;;;;;;12.50;7.20;;;;;;;;;;5095437;28;20485;-68
2022/02/27 14:10:03;;;;;;;11.52;6.82;;;;;;;;;;5094379;28;20416;-70
2022/02/27 14:12:31;;;;;;;14.35;7.85;;;;;;;;;;5094853;28;20059;-68
2022/02/27 14:14:58;;;;;;;11.50;7.00;;;;;;;;;;5094790;28;20056;-69
2022/02/27 14:17:25;;;;;;;10.85;7.75;;;;;;;;;;5094996;28;20052;-69
2022/02/27 14:19:53;;;;;;;10.40;6.30;;;;;;;;;;5094439;28;20054;-66
2022/02/27 14:22:20;;;;;;;12.75;8.00;;;;;;;;;;5094497;28;20055;-66
2022/02/27 14:24:48;;;;;;;11.93;7.35;;;;;;;;;;5094472;28;20507;-66
2022/02/27 14:27:17;;;;;;;11.85;7.40;;;;;;;;;;5094073;28;20052;-67
2022/02/27 14:29:48;;;;;;;13.55;7.15;;;;;;;;;;5094470;28;20052;-66
2022/02/27 14:32:23;;;;;;;12.15;7.32;;;;;;;;;;5094222;28;20052;-67
2022/02/27 14:34:50;;;;;;;12.88;7.70;;;;;;;;;;5094515;28;20489;-66
2022/02/27 14:37:17;;;;;;;12.27;7.20;;;;;;;;;;5093806;28;20083;-66
2022/02/27 14:39:44;;;;;;;10.23;6.38;;;;;;;;;;5094121;28;20109;-66
2022/02/27 14:42:12;;;;;;;11.55;7.10;;;;;;;;;;5094155;28;20511;-67
2022/02/27 14:44:40;;;;;;;10.52;6.63;;;;;;;;;;5094348;28;20531;-66